createdAt,value
2023-02-11T01:14:57.526Z,84.15
2023-02-11T01:18:01.333Z,84.31
2023-02-11T01:21:02.438Z,84.28
2023-02-11T01:24:03.669Z,84.42
2023-02-11T01:27:03.319Z,84.42
2023-02-11T01:30:04.574Z,84.47
2023-02-11T01:33:06.368Z,85.01
2023-02-11T01:36:09.457Z,84.84
2023-02-11T01:39:09.367Z,85.09
2023-02-11T01:42:10.334Z,85.22
2023-02-11T01:45:13.365Z,85.30
2023-02-11T01:48:15.345Z,85.39
2023-02-11T01:51:27.904Z,85.29
2023-02-11T01:54:52.359Z,85.25
2023-02-11T01:57:53.341Z,85.22
2023-02-11T02:00:55.494Z,85.32
2023-02-11T02:03:56.495Z,85.42
2023-02-11T02:07:09.399Z,85.78
2023-02-11T02:10:19.536Z,86.03
2023-02-11T02:13:23.379Z,86.41
2023-02-11T02:16:27.535Z,86.59
2023-02-11T02:19:40.474Z,86.82
2023-02-11T02:23:12.391Z,86.93
2023-02-11T02:26:27.413Z,87.31
2023-02-11T02:29:54.392Z,87.80
2023-02-11T02:33:07.932Z,88.11
2023-02-11T02:36:28.420Z,88.25
2023-02-11T02:39:37.502Z,88.47
2023-02-11T02:42:38.439Z,88.77
2023-02-11T02:45:38.420Z,89.05
2023-02-11T02:48:47.679Z,89.42
2023-02-11T02:51:56.454Z,89.67
2023-02-11T02:55:09.426Z,89.83
2023-02-11T02:58:40.448Z,89.87
2023-02-11T03:01:58.561Z,89.94
2023-02-11T03:05:34.481Z,89.96
2023-02-11T03:08:48.615Z,89.92
2023-02-11T03:11:49.507Z,90.03
2023-02-11T03:14:49.484Z,90.03
2023-02-11T03:17:52.498Z,89.94
2023-02-11T03:20:52.510Z,89.91
2023-02-11T03:24:07.750Z,90.01
2023-02-11T03:27:19.062Z,90.00
2023-02-11T03:30:23.518Z,90.03
2023-02-11T03:33:36.528Z,89.74
2023-02-11T03:36:54.590Z,89.37
2023-02-11T03:40:01.587Z,89.24
2023-02-11T03:43:09.821Z,89.10
2023-02-11T03:46:09.565Z,88.72
2023-02-11T03:49:11.547Z,88.54
2023-02-11T03:52:17.727Z,88.09
2023-02-11T03:55:25.708Z,87.89
2023-02-11T03:58:26.655Z,87.58
2023-02-11T04:01:26.629Z,87.23
2023-02-11T04:04:27.579Z,86.86
2023-02-11T04:07:30.668Z,86.54
2023-02-11T04:10:33.772Z,86.42
2023-02-11T04:13:36.615Z,86.31
2023-02-11T04:16:37.661Z,86.04
2023-02-11T04:19:38.634Z,85.58
2023-02-11T04:22:43.153Z,85.49
2023-02-11T04:25:47.673Z,85.56
2023-02-11T04:28:47.691Z,85.64
2023-02-11T04:31:48.747Z,85.61
2023-02-11T04:34:50.638Z,85.84
2023-02-11T04:37:52.628Z,85.88
2023-02-11T04:40:52.650Z,86.05
2023-02-11T04:43:53.709Z,86.33
2023-02-11T04:46:55.674Z,86.16
2023-02-11T04:49:58.795Z,86.11
2023-02-11T04:53:01.967Z,86.28
2023-02-11T04:56:02.711Z,86.44
2023-02-11T04:59:02.787Z,86.26
2023-02-11T05:02:02.782Z,86.23
2023-02-11T05:05:03.893Z,86.22
2023-02-11T05:08:04.667Z,86.11
2023-02-11T05:11:04.717Z,86.06
2023-02-11T05:14:08.536Z,85.94
2023-02-11T05:17:08.866Z,85.96
2023-02-11T05:20:08.676Z,85.72
2023-02-11T05:23:09.702Z,85.84
2023-02-11T05:26:10.857Z,85.94
2023-02-11T05:29:12.837Z,86.22
2023-02-11T05:32:21.682Z,86.43
2023-02-11T05:35:21.776Z,86.82
2023-02-11T05:38:27.155Z,87.48
2023-02-11T05:41:28.716Z,88.40
2023-02-11T05:44:28.699Z,88.86
2023-02-11T05:47:30.725Z,89.39
2023-02-11T05:50:32.700Z,89.86
2023-02-11T05:53:32.721Z,89.93
2023-02-11T05:56:43.776Z,89.92
2023-02-11T05:59:45.744Z,89.68
2023-02-11T06:02:47.137Z,89.51
2023-02-11T06:05:48.158Z,89.30
2023-02-11T06:08:51.761Z,89.01
2023-02-11T06:11:51.909Z,88.72
2023-02-11T06:14:52.818Z,88.72
2023-02-11T06:17:55.096Z,88.06
2023-02-11T06:20:58.769Z,87.72
2023-02-11T06:24:00.827Z,87.36
2023-02-11T06:27:00.814Z,86.56
2023-02-11T06:30:01.918Z,86.29
2023-02-11T06:33:02.796Z,85.67
2023-02-11T06:36:04.238Z,85.12
2023-02-11T06:39:04.875Z,84.39
2023-02-11T06:42:08.021Z,84.11
2023-02-11T06:45:14.608Z,84.04
2023-02-11T06:48:21.417Z,83.54
2023-02-11T06:51:23.799Z,83.51
2023-02-11T06:54:26.355Z,83.31
2023-02-11T06:57:26.807Z,83.25
2023-02-11T07:00:26.852Z,83.00
2023-02-11T07:03:27.907Z,83.02
2023-02-11T07:06:31.089Z,82.66
2023-02-11T07:09:34.902Z,82.45
2023-02-11T07:12:36.867Z,82.30
2023-02-11T07:15:38.949Z,82.57
2023-02-11T07:18:49.922Z,82.59
2023-02-11T07:21:55.366Z,82.58
2023-02-11T07:24:56.870Z,83.28
2023-02-11T07:28:00.497Z,83.65
2023-02-11T07:31:05.011Z,84.39
2023-02-11T07:34:06.156Z,84.90
2023-02-11T07:37:10.014Z,85.32
2023-02-11T07:40:13.016Z,85.84
2023-02-11T07:43:20.747Z,86.35
2023-02-11T07:46:31.966Z,86.61
2023-02-11T07:49:32.004Z,86.72
2023-02-11T07:52:31.933Z,87.08
2023-02-11T07:55:25.747Z,87.20
2023-02-11T07:58:25.996Z,87.62
2023-02-11T08:01:33.169Z,87.77
2023-02-11T08:04:34.042Z,87.95
2023-02-11T08:07:37.055Z,88.40
2023-02-11T08:10:38.958Z,88.41
2023-02-11T08:13:40.933Z,88.57
2023-02-11T08:16:58.296Z,88.41
2023-02-11T08:20:00.106Z,88.83
2023-02-11T08:23:04.992Z,88.56
2023-02-11T08:26:06.026Z,88.73
2023-02-11T08:29:07.411Z,88.88
2023-02-11T08:32:12.209Z,89.15
2023-02-11T08:35:14.449Z,89.03
2023-02-11T08:38:18.138Z,89.02
2023-02-11T08:41:21.509Z,89.29
2023-02-11T08:44:23.981Z,89.31
2023-02-11T08:47:27.998Z,89.60
2023-02-11T08:50:31.095Z,89.96
2023-02-11T08:53:40.544Z,90.03
2023-02-11T08:56:43.316Z,90.24
2023-02-11T08:59:45.979Z,90.24
2023-02-11T09:02:46.046Z,89.99
2023-02-11T09:05:46.688Z,90.31
2023-02-11T09:08:52.522Z,90.14
2023-02-11T09:11:56.238Z,89.96
2023-02-11T09:14:57.276Z,89.79
2023-02-11T09:17:59.068Z,90.04
2023-02-11T09:21:07.340Z,90.03
2023-02-11T09:24:10.534Z,89.77
2023-02-11T09:27:12.289Z,89.84
2023-02-11T09:30:20.071Z,90.04
2023-02-11T09:33:29.649Z,90.38
2023-02-11T09:36:36.107Z,90.27
2023-02-11T09:39:37.121Z,90.31
2023-02-11T09:42:48.105Z,90.53
2023-02-11T09:45:48.161Z,90.79
2023-02-11T09:48:53.378Z,91.12
2023-02-11T09:52:02.122Z,90.65
2023-02-11T09:55:06.143Z,91.16
2023-02-11T09:58:11.596Z,91.42
2023-02-11T10:01:28.225Z,92.10
2023-02-11T10:05:10.190Z,92.85
2023-02-11T10:08:34.135Z,93.73
2023-02-11T10:12:00.500Z,94.13
2023-02-11T10:15:40.803Z,94.42
2023-02-11T10:19:00.433Z,94.98
2023-02-11T10:22:23.555Z,95.05
2023-02-11T10:25:36.298Z,94.85
2023-02-11T10:28:47.247Z,95.08
2023-02-11T10:31:58.307Z,94.69
2023-02-11T10:35:04.764Z,94.71
2023-02-11T10:41:36.421Z,94.35
2023-02-11T10:45:11.412Z,94.78
2023-02-11T10:48:19.615Z,95.52
2023-02-11T10:51:46.284Z,95.15
2023-02-11T10:54:46.241Z,95.39
2023-02-11T10:58:15.285Z,95.46
2023-02-11T11:04:55.324Z,94.90
2023-02-11T11:07:55.786Z,94.76
2023-02-11T11:10:58.286Z,94.58
2023-02-11T11:14:11.275Z,94.57
2023-02-11T11:17:13.237Z,94.30
2023-02-11T11:20:44.469Z,94.18
2023-02-11T11:23:52.271Z,93.72
2023-02-11T11:26:59.494Z,93.89
2023-02-11T11:30:06.312Z,93.65
2023-02-11T11:33:10.611Z,93.48
2023-02-11T11:36:15.454Z,92.99
2023-02-11T11:39:45.031Z,92.91
2023-02-11T11:42:53.347Z,92.57
2023-02-11T11:46:15.823Z,92.67
2023-02-11T11:49:32.292Z,92.57
2023-02-11T11:53:00.405Z,91.55
2023-02-11T11:56:13.592Z,90.58
2023-02-11T11:59:23.334Z,88.34
2023-02-11T12:02:52.409Z,88.11
2023-02-11T12:06:05.336Z,87.91
2023-02-11T12:09:35.357Z,89.14
2023-02-11T12:13:19.512Z,90.47
2023-02-11T12:16:48.438Z,92.10
2023-02-11T12:19:51.599Z,92.85
2023-02-11T12:23:13.381Z,93.45
2023-02-11T12:26:32.795Z,93.76
2023-02-11T12:29:50.357Z,93.89
2023-02-11T12:33:08.346Z,94.33
2023-02-11T12:36:45.374Z,94.15
2023-02-11T12:39:57.502Z,93.77
2023-02-11T12:43:22.386Z,92.23
2023-02-11T12:46:49.624Z,91.62
2023-02-11T12:50:05.431Z,90.65
2023-02-11T12:53:22.379Z,90.25
2023-02-11T12:56:28.423Z,89.99
2023-02-11T13:00:02.460Z,88.64
2023-02-11T13:03:19.127Z,87.74
2023-02-11T13:06:24.628Z,88.23
2023-02-11T13:09:33.469Z,88.08
2023-02-11T13:12:51.456Z,88.28
2023-02-11T13:15:55.572Z,87.93
2023-02-11T13:19:04.640Z,87.13
2023-02-11T13:22:18.634Z,86.35
2023-02-11T13:25:41.800Z,86.45
2023-02-11T13:29:08.519Z,86.03
2023-02-11T13:32:17.444Z,86.02
2023-02-11T13:35:42.791Z,84.80
2023-02-11T13:38:42.478Z,83.53
2023-02-11T13:41:40.383Z,82.58
2023-02-11T13:44:41.522Z,80.97
2023-02-11T13:47:44.531Z,79.34
2023-02-11T13:50:50.775Z,78.80
2023-02-11T13:54:11.568Z,78.82
2023-02-11T13:57:35.515Z,79.78
2023-02-11T14:00:49.290Z,80.48
2023-02-11T14:04:11.703Z,80.95
2023-02-11T14:08:02.637Z,80.96
2023-02-11T14:11:02.602Z,80.54
2023-02-11T14:14:03.526Z,80.95
2023-02-11T14:17:25.627Z,80.27
2023-02-11T14:20:46.610Z,79.81
2023-02-11T14:23:46.554Z,79.35
2023-02-11T14:26:59.746Z,78.86
2023-02-11T14:30:04.616Z,78.93
2023-02-11T14:33:21.547Z,78.37
2023-02-11T14:36:49.749Z,78.25
2023-02-11T14:40:01.652Z,78.08
2023-02-11T14:43:05.604Z,78.47
2023-02-11T14:46:07.652Z,78.83
2023-02-11T14:49:10.602Z,79.45
2023-02-11T14:52:19.750Z,79.65
2023-02-11T14:55:29.631Z,79.60
2023-02-11T14:58:49.735Z,79.82
2023-02-11T15:01:53.677Z,79.38
2023-02-11T15:04:54.615Z,78.07
2023-02-11T15:07:59.781Z,77.52
2023-02-11T15:11:03.654Z,77.72
2023-02-11T15:14:05.989Z,78.04
2023-02-11T15:17:08.693Z,77.52
2023-02-11T15:20:12.673Z,76.54
2023-02-11T15:23:15.681Z,76.49
2023-02-11T15:26:24.684Z,75.77
2023-02-11T15:29:30.664Z,74.97
2023-02-11T15:33:03.945Z,75.05
2023-02-11T15:36:04.679Z,74.13
2023-02-11T15:39:31.714Z,73.67
2023-02-11T15:42:47.199Z,73.67
2023-02-11T15:45:58.832Z,73.69
2023-02-11T15:49:06.772Z,73.76
2023-02-11T15:52:08.711Z,73.43
2023-02-11T15:55:09.079Z,72.96
2023-02-11T15:58:13.815Z,72.52
2023-02-11T16:01:16.160Z,72.25
2023-02-11T16:04:20.976Z,71.92
2023-02-11T16:07:50.772Z,71.19
2023-02-11T16:10:52.044Z,71.28
2023-02-11T16:13:59.787Z,70.95
2023-02-11T16:17:01.711Z,71.02
2023-02-11T16:20:02.792Z,70.59
2023-02-11T16:23:03.791Z,70.37
2023-02-11T16:26:08.017Z,70.64
2023-02-11T16:29:15.998Z,70.67
2023-02-11T16:32:44.831Z,70.55
2023-02-11T16:35:44.863Z,70.43
2023-02-11T16:38:45.798Z,70.61
2023-02-11T16:41:45.807Z,71.29
2023-02-11T16:44:45.786Z,71.52
2023-02-11T16:47:46.790Z,71.98
2023-02-11T16:50:47.818Z,72.69
2023-02-11T16:53:49.866Z,72.82
2023-02-11T16:56:52.052Z,72.91
2023-02-11T16:59:52.830Z,73.19
2023-02-11T17:02:52.822Z,73.18
2023-02-11T17:05:55.738Z,72.21
2023-02-11T17:09:02.898Z,72.08
2023-02-11T17:12:03.923Z,71.28
2023-02-11T17:15:07.536Z,71.24
2023-02-11T17:18:10.888Z,70.86
2023-02-11T17:21:12.987Z,70.52
2023-02-11T17:24:15.916Z,70.67
2023-02-11T17:27:16.172Z,70.01
2023-02-11T17:30:16.011Z,70.17
2023-02-11T17:33:16.179Z,70.34
2023-02-11T17:36:19.103Z,70.08
2023-02-11T17:39:21.939Z,69.87
2023-02-11T17:42:26.862Z,70.03
2023-02-11T17:45:26.986Z,70.04
2023-02-11T17:48:26.935Z,70.31
2023-02-11T17:51:44.949Z,70.47
2023-02-11T17:54:44.951Z,70.73
2023-02-11T17:57:45.089Z,71.03
2023-02-11T18:00:46.835Z,71.16
2023-02-11T18:03:49.998Z,71.60
2023-02-11T18:06:50.934Z,71.39
2023-02-11T18:09:53.832Z,71.96
2023-02-11T18:12:54.966Z,72.04
2023-02-11T18:15:59.166Z,71.93
2023-02-11T18:19:01.977Z,72.18
2023-02-11T18:22:02.950Z,72.03
2023-02-11T18:25:09.930Z,72.64
2023-02-11T18:28:11.027Z,72.49
2023-02-11T18:31:12.339Z,73.00
2023-02-11T18:34:17.018Z,73.42
2023-02-11T18:37:18.472Z,73.28
2023-02-11T18:40:20.966Z,73.87
2023-02-11T18:43:21.187Z,74.10
2023-02-11T18:46:23.017Z,74.17
2023-02-11T18:49:25.153Z,74.66
2023-02-11T18:52:29.870Z,74.81
2023-02-11T18:55:32.083Z,75.30
2023-02-11T18:58:33.033Z,75.61
2023-02-11T19:01:39.153Z,76.20
2023-02-11T19:04:39.102Z,76.60
2023-02-11T19:07:39.110Z,77.16
2023-02-11T19:10:40.053Z,78.19
2023-02-11T19:13:42.111Z,79.36
2023-02-11T19:16:42.230Z,80.09
2023-02-11T19:19:47.374Z,80.89
2023-02-11T19:22:48.112Z,81.16
2023-02-11T19:25:48.179Z,81.14
2023-02-11T19:28:49.118Z,81.50
2023-02-11T19:31:50.470Z,81.95
2023-02-11T19:34:48.713Z,82.65
2023-02-11T19:37:55.648Z,83.28
2023-02-11T19:40:57.312Z,84.41
2023-02-11T19:43:59.093Z,85.69
2023-02-11T19:46:59.151Z,86.50
2023-02-11T19:50:02.420Z,87.64
2023-02-11T19:53:09.185Z,88.42
2023-02-11T19:56:09.284Z,89.36
2023-02-11T19:59:11.128Z,89.88
2023-02-11T20:02:11.183Z,90.82
2023-02-11T20:05:11.161Z,91.56
2023-02-11T20:08:14.315Z,92.07
2023-02-11T20:11:24.132Z,92.32
2023-02-11T20:14:30.287Z,93.38
2023-02-11T20:17:32.153Z,93.49
2023-02-11T20:20:34.341Z,93.83
2023-02-11T20:23:40.159Z,93.65
2023-02-11T20:26:47.154Z,94.12
2023-02-11T20:29:48.161Z,95.02
2023-02-11T20:32:48.410Z,95.78
2023-02-11T20:35:50.371Z,96.54
2023-02-11T20:39:01.455Z,97.33
2023-02-11T20:42:09.935Z,97.92
2023-02-11T20:45:12.211Z,98.39
2023-02-11T20:48:12.252Z,99.10
2023-02-11T20:51:23.737Z,99.95
2023-02-11T20:54:31.548Z,100.00
2023-02-11T20:57:32.245Z,100.00
2023-02-11T21:00:34.528Z,100.00
2023-02-11T21:03:45.217Z,100.00
2023-02-11T21:06:50.229Z,100.00
2023-02-11T21:09:53.555Z,100.00
2023-02-11T21:12:58.240Z,100.00
2023-02-11T21:16:01.546Z,100.00
2023-02-11T21:19:02.875Z,100.00
2023-02-11T21:22:07.282Z,100.00
2023-02-11T21:25:08.461Z,100.00
2023-02-11T21:28:11.812Z,100.00
2023-02-11T21:31:13.392Z,100.00
2023-02-11T21:34:14.447Z,100.00
2023-02-11T21:37:15.224Z,100.00
2023-02-11T21:40:17.714Z,100.00
2023-02-11T21:43:19.256Z,100.00
2023-02-11T21:46:22.424Z,100.00
2023-02-11T21:49:26.283Z,100.00
2023-02-11T21:52:27.319Z,100.00
2023-02-11T21:55:27.356Z,100.00
2023-02-11T21:58:27.309Z,100.00
2023-02-11T22:01:30.618Z,100.00
2023-02-11T22:04:31.449Z,100.00
2023-02-11T22:07:33.322Z,100.00
2023-02-11T22:10:34.370Z,100.00
2023-02-11T22:13:35.341Z,100.00
2023-02-11T22:16:36.501Z,100.00
2023-02-11T22:19:38.373Z,100.00
2023-02-11T22:22:43.590Z,100.00
2023-02-11T22:25:43.431Z,100.00
2023-02-11T22:28:46.348Z,100.00
2023-02-11T22:31:46.435Z,100.00
2023-02-11T22:34:46.363Z,100.00
2023-02-11T22:37:48.581Z,100.00
2023-02-11T22:40:48.395Z,100.00
2023-02-11T22:43:49.383Z,100.00
2023-02-11T22:46:50.628Z,100.00
2023-02-11T22:49:52.419Z,100.00
2023-02-11T22:52:54.378Z,100.00
2023-02-11T22:55:54.771Z,100.00
2023-02-11T22:58:55.648Z,100.00
2023-02-11T23:01:55.508Z,100.00
2023-02-11T23:04:56.465Z,100.00
2023-02-11T23:07:57.429Z,100.00
2023-02-11T23:10:59.417Z,100.00
2023-02-11T23:14:04.424Z,100.00
2023-02-11T23:17:05.428Z,100.00
2023-02-11T23:20:07.466Z,100.00
2023-02-11T23:23:07.667Z,100.00
2023-02-11T23:26:07.505Z,100.00
2023-02-11T23:29:10.424Z,100.00
2023-02-11T23:32:10.482Z,100.00
2023-02-11T23:35:10.464Z,100.00
2023-02-11T23:38:12.478Z,100.00
2023-02-11T23:41:12.529Z,100.00
2023-02-11T23:44:12.527Z,100.00
2023-02-11T23:47:13.487Z,100.00
2023-02-11T23:50:14.500Z,100.00
2023-02-11T23:53:15.484Z,100.00
2023-02-11T23:56:28.522Z,100.00
2023-02-11T23:59:29.492Z,100.00
